Almyra, Arkansas
Current Conditions -  °F | °C
As of 4:35 AM on Thursday 27 Nov 2014 (Local Time) from KSGT Reporting Station
Clear Clear  
Wind Chill: 27°   Ceiling: Unl
Heat Index: 36°   Visibility: 10mi
Dew Point: 27°   Wind: 14mph
Humidity: 70%   Direction: 340°NNW
Pressure: 30.38"   Gusts: NA
Location:  34.41°N, 91.41°W
Report Text: KSGT 271035Z AUTO 34012KT 10SM CLR 02/M03 A3038 RMK AO1
Loading
Personal Weather Stations






























Interactive Weather Map New forecast layout! Learn more

10-Day Weather Forecast

Advertisements
Track Severe Weather on mobile